Terminal Aerodrome Forecast
Issued by NWS

Home | Current Version | Previous Version | Text Only | Print | Product List | Glossary On
Versions: 1 2 3 4 5 6 7 8 9 10 11 12 13 14 15 16 17 18 19
678
FTUS41 KBTV 241317 AAA
TAFRUT
TAF AMD
KRUT 241317Z 2413/2512 14006KT P6SM VCSH OVC070
      TEMPO 2414/2418 -SHRA
     FM241800 00000KT P6SM VCSH BKN080
     FM250100 00000KT P6SM BKN140
      AMD LTD TO CLD VIS AND WIND=

USA.gov is the U.S. government's official web portal to all federal, state and local government web resources and services.